sensor_id;sensor_type;location;lat;lon;timestamp;P1;durP1;ratioP1;P2;durP2;ratioP2
54502;SDS011;40411;50.090;21.954;2022-08-25T00:03:45;29.20;;;12.30;;
54502;SDS011;40411;50.090;21.954;2022-08-25T00:06:12;33.88;;;14.00;;
54502;SDS011;40411;50.090;21.954;2022-08-25T00:08:39;29.58;;;13.73;;
54502;SDS011;40411;50.090;21.954;2022-08-25T00:11:10;25.65;;;14.05;;
54502;SDS011;40411;50.090;21.954;2022-08-25T00:13:50;25.52;;;13.68;;
54502;SDS011;40411;50.090;21.954;2022-08-25T00:16:19;30.73;;;14.13;;
54502;SDS011;40411;50.090;21.954;2022-08-25T00:18:48;29.60;;;13.95;;
54502;SDS011;40411;50.090;21.954;2022-08-25T00:21:17;25.27;;;11.98;;
54502;SDS011;40411;50.090;21.954;2022-08-25T00:23:43;28.98;;;12.75;;
54502;SDS011;40411;50.090;21.954;2022-08-25T00:26:10;27.98;;;13.90;;
54502;SDS011;40411;50.090;21.954;2022-08-25T00:28:36;30.80;;;13.65;;
54502;SDS011;40411;50.090;21.954;2022-08-25T00:31:04;33.47;;;13.95;;
54502;SDS011;40411;50.090;21.954;2022-08-25T00:33:31;25.52;;;13.18;;
54502;SDS011;40411;50.090;21.954;2022-08-25T00:35:57;36.05;;;14.38;;
54502;SDS011;40411;50.090;21.954;2022-08-25T00:38:25;27.88;;;13.85;;
54502;SDS011;40411;50.090;21.954;2022-08-25T00:40:51;40.90;;;16.48;;
54502;SDS011;40411;50.090;21.954;2022-08-25T00:43:34;35.38;;;14.88;;
54502;SDS011;40411;50.090;21.954;2022-08-25T00:46:10;42.60;;;17.23;;
54502;SDS011;40411;50.090;21.954;2022-08-25T00:48:37;43.50;;;16.88;;
54502;SDS011;40411;50.090;21.954;2022-08-25T00:51:06;39.45;;;16.00;;
54502;SDS011;40411;50.090;21.954;2022-08-25T00:53:36;30.20;;;15.65;;
54502;SDS011;40411;50.090;21.954;2022-08-25T00:56:03;36.95;;;15.93;;
54502;SDS011;40411;50.090;21.954;2022-08-25T00:58:31;39.90;;;17.05;;
54502;SDS011;40411;50.090;21.954;2022-08-25T01:00:59;39.30;;;17.65;;
54502;SDS011;40411;50.090;21.954;2022-08-25T01:03:27;39.95;;;17.95;;
54502;SDS011;40411;50.090;21.954;2022-08-25T01:05:58;41.03;;;19.17;;
54502;SDS011;40411;50.090;21.954;2022-08-25T01:08:26;31.67;;;17.80;;
54502;SDS011;40411;50.090;21.954;2022-08-25T01:10:54;30.98;;;15.07;;
54502;SDS011;40411;50.090;21.954;2022-08-25T01:13:23;32.47;;;16.35;;
54502;SDS011;40411;50.090;21.954;2022-08-25T01:15:54;42.00;;;17.88;;
54502;SDS011;40411;50.090;21.954;2022-08-25T01:18:21;32.63;;;15.80;;
54502;SDS011;40411;50.090;21.954;2022-08-25T01:20:51;37.53;;;17.52;;
54502;SDS011;40411;50.090;21.954;2022-08-25T01:23:21;40.38;;;16.60;;
54502;SDS011;40411;50.090;21.954;2022-08-25T01:25:58;46.30;;;17.55;;
54502;SDS011;40411;50.090;21.954;2022-08-25T01:28:29;41.20;;;18.35;;
54502;SDS011;40411;50.090;21.954;2022-08-25T01:30:55;33.78;;;17.08;;
54502;SDS011;40411;50.090;21.954;2022-08-25T01:33:21;34.40;;;17.25;;
54502;SDS011;40411;50.090;21.954;2022-08-25T01:35:48;33.05;;;16.83;;
54502;SDS011;40411;50.090;21.954;2022-08-25T01:38:14;36.20;;;16.42;;
54502;SDS011;40411;50.090;21.954;2022-08-25T01:40:40;40.95;;;16.60;;
54502;SDS011;40411;50.090;21.954;2022-08-25T01:45:40;40.88;;;17.13;;
54502;SDS011;40411;50.090;21.954;2022-08-25T01:48:11;41.13;;;18.80;;
54502;SDS011;40411;50.090;21.954;2022-08-25T01:50:39;46.50;;;19.38;;
54502;SDS011;40411;50.090;21.954;2022-08-25T01:53:18;37.83;;;18.27;;
54502;SDS011;40411;50.090;21.954;2022-08-25T01:55:48;36.92;;;18.30;;
54502;SDS011;40411;50.090;21.954;2022-08-25T01:58:21;38.22;;;17.50;;
54502;SDS011;40411;50.090;21.954;2022-08-25T02:00:50;34.50;;;16.65;;
54502;SDS011;40411;50.090;21.954;2022-08-25T02:03:18;29.33;;;15.05;;
54502;SDS011;40411;50.090;21.954;2022-08-25T02:05:44;37.65;;;15.15;;
54502;SDS011;40411;50.090;21.954;2022-08-25T02:08:11;36.45;;;14.45;;
54502;SDS011;40411;50.090;21.954;2022-08-25T02:10:38;35.33;;;16.35;;
54502;SDS011;40411;50.090;21.954;2022-08-25T02:13:05;33.33;;;14.63;;
54502;SDS011;40411;50.090;21.954;2022-08-25T02:15:33;29.92;;;13.85;;
54502;SDS011;40411;50.090;21.954;2022-08-25T02:18:01;38.40;;;16.00;;
54502;SDS011;40411;50.090;21.954;2022-08-25T02:20:27;47.67;;;15.93;;
54502;SDS011;40411;50.090;21.954;2022-08-25T02:22:53;49.38;;;16.95;;
54502;SDS011;40411;50.090;21.954;2022-08-25T02:25:19;35.78;;;16.55;;
54502;SDS011;40411;50.090;21.954;2022-08-25T02:27:45;37.33;;;16.10;;
54502;SDS011;40411;50.090;21.954;2022-08-25T02:30:14;41.60;;;16.30;;
54502;SDS011;40411;50.090;21.954;2022-08-25T02:32:40;32.30;;;15.80;;
54502;SDS011;40411;50.090;21.954;2022-08-25T02:35:07;51.55;;;15.35;;
54502;SDS011;40411;50.090;21.954;2022-08-25T02:37:33;48.15;;;14.40;;
54502;SDS011;40411;50.090;21.954;2022-08-25T02:40:00;93.22;;;17.77;;
54502;SDS011;40411;50.090;21.954;2022-08-25T02:42:26;68.57;;;16.25;;
54502;SDS011;40411;50.090;21.954;2022-08-25T02:44:52;69.97;;;16.83;;
54502;SDS011;40411;50.090;21.954;2022-08-25T02:47:18;68.15;;;15.27;;
54502;SDS011;40411;50.090;21.954;2022-08-25T02:49:44;92.00;;;16.58;;
54502;SDS011;40411;50.090;21.954;2022-08-25T02:52:10;91.65;;;17.05;;
54502;SDS011;40411;50.090;21.954;2022-08-25T02:54:36;78.45;;;16.60;;
54502;SDS011;40411;50.090;21.954;2022-08-25T02:57:02;66.80;;;16.58;;
54502;SDS011;40411;50.090;21.954;2022-08-25T02:59:28;77.07;;;18.13;;
54502;SDS011;40411;50.090;21.954;2022-08-25T03:01:54;73.90;;;16.40;;
54502;SDS011;40411;50.090;21.954;2022-08-25T03:04:20;65.00;;;15.85;;
54502;SDS011;40411;50.090;21.954;2022-08-25T03:06:47;47.65;;;16.02;;
54502;SDS011;40411;50.090;21.954;2022-08-25T03:09:13;62.78;;;17.05;;
54502;SDS011;40411;50.090;21.954;2022-08-25T03:11:39;49.53;;;15.48;;
54502;SDS011;40411;50.090;21.954;2022-08-25T03:14:05;88.78;;;16.05;;
54502;SDS011;40411;50.090;21.954;2022-08-25T03:16:34;55.38;;;16.02;;
54502;SDS011;40411;50.090;21.954;2022-08-25T03:19:00;76.38;;;16.45;;
54502;SDS011;40411;50.090;21.954;2022-08-25T03:21:26;70.30;;;16.50;;
54502;SDS011;40411;50.090;21.954;2022-08-25T03:23:53;65.32;;;16.30;;
54502;SDS011;40411;50.090;21.954;2022-08-25T03:26:19;88.72;;;17.70;;
54502;SDS011;40411;50.090;21.954;2022-08-25T03:29:04;57.47;;;17.40;;
54502;SDS011;40411;50.090;21.954;2022-08-25T03:31:32;49.25;;;17.60;;
54502;SDS011;40411;50.090;21.954;2022-08-25T03:33:59;57.08;;;15.63;;
54502;SDS011;40411;50.090;21.954;2022-08-25T03:36:26;90.18;;;17.45;;
54502;SDS011;40411;50.090;21.954;2022-08-25T03:38:52;65.05;;;16.55;;
54502;SDS011;40411;50.090;21.954;2022-08-25T03:41:21;43.70;;;17.27;;
54502;SDS011;40411;50.090;21.954;2022-08-25T03:43:49;66.43;;;15.75;;
54502;SDS011;40411;50.090;21.954;2022-08-25T03:46:16;43.15;;;16.30;;
54502;SDS011;40411;50.090;21.954;2022-08-25T03:49:03;120.32;;;17.27;;
54502;SDS011;40411;50.090;21.954;2022-08-25T03:51:31;62.70;;;15.82;;
54502;SDS011;40411;50.090;21.954;2022-08-25T03:54:08;59.38;;;17.25;;
54502;SDS011;40411;50.090;21.954;2022-08-25T03:56:35;54.10;;;17.20;;
54502;SDS011;40411;50.090;21.954;2022-08-25T03:59:01;64.65;;;16.42;;
54502;SDS011;40411;50.090;21.954;2022-08-25T04:01:28;70.95;;;16.83;;
54502;SDS011;40411;50.090;21.954;2022-08-25T04:03:54;59.15;;;16.52;;
54502;SDS011;40411;50.090;21.954;2022-08-25T04:06:20;71.28;;;17.38;;
54502;SDS011;40411;50.090;21.954;2022-08-25T04:08:46;64.05;;;17.17;;
54502;SDS011;40411;50.090;21.954;2022-08-25T04:11:16;54.35;;;17.58;;
54502;SDS011;40411;50.090;21.954;2022-08-25T04:13:44;106.28;;;16.33;;
54502;SDS011;40411;50.090;21.954;2022-08-25T04:16:19;72.97;;;16.65;;
54502;SDS011;40411;50.090;21.954;2022-08-25T04:18:49;91.38;;;15.23;;
54502;SDS011;40411;50.090;21.954;2022-08-25T04:21:16;67.40;;;15.90;;
54502;SDS011;40411;50.090;21.954;2022-08-25T04:23:43;70.20;;;16.25;;
54502;SDS011;40411;50.090;21.954;2022-08-25T04:26:11;67.97;;;15.52;;
54502;SDS011;40411;50.090;21.954;2022-08-25T04:28:39;76.70;;;14.90;;
54502;SDS011;40411;50.090;21.954;2022-08-25T04:31:06;57.83;;;14.57;;
54502;SDS011;40411;50.090;21.954;2022-08-25T04:33:34;109.18;;;14.25;;
54502;SDS011;40411;50.090;21.954;2022-08-25T04:36:01;36.53;;;14.85;;
54502;SDS011;40411;50.090;21.954;2022-08-25T04:38:28;55.47;;;14.48;;
54502;SDS011;40411;50.090;21.954;2022-08-25T04:41:00;26.73;;;11.50;;
54502;SDS011;40411;50.090;21.954;2022-08-25T04:43:28;42.37;;;11.90;;
54502;SDS011;40411;50.090;21.954;2022-08-25T04:45:55;35.20;;;12.57;;
54502;SDS011;40411;50.090;21.954;2022-08-25T04:48:22;43.70;;;13.18;;
54502;SDS011;40411;50.090;21.954;2022-08-25T04:50:48;24.27;;;12.95;;
54502;SDS011;40411;50.090;21.954;2022-08-25T04:53:15;27.25;;;11.88;;
54502;SDS011;40411;50.090;21.954;2022-08-25T04:55:41;53.22;;;12.93;;
54502;SDS011;40411;50.090;21.954;2022-08-25T04:58:10;26.15;;;11.02;;
54502;SDS011;40411;50.090;21.954;2022-08-25T05:00:37;33.10;;;11.05;;
54502;SDS011;40411;50.090;21.954;2022-08-25T05:03:04;25.38;;;10.65;;
54502;SDS011;40411;50.090;21.954;2022-08-25T05:05:31;29.80;;;10.73;;
54502;SDS011;40411;50.090;21.954;2022-08-25T05:08:00;31.92;;;10.82;;
54502;SDS011;40411;50.090;21.954;2022-08-25T05:10:26;24.48;;;10.07;;
54502;SDS011;40411;50.090;21.954;2022-08-25T05:12:52;24.13;;;10.07;;
54502;SDS011;40411;50.090;21.954;2022-08-25T05:15:18;27.10;;;11.05;;
54502;SDS011;40411;50.090;21.954;2022-08-25T05:18:02;39.45;;;10.98;;
54502;SDS011;40411;50.090;21.954;2022-08-25T05:20:28;18.02;;;9.98;;
54502;SDS011;40411;50.090;21.954;2022-08-25T05:22:56;21.40;;;10.68;;
54502;SDS011;40411;50.090;21.954;2022-08-25T05:25:23;33.78;;;11.32;;
54502;SDS011;40411;50.090;21.954;2022-08-25T05:27:49;25.70;;;11.15;;
54502;SDS011;40411;50.090;21.954;2022-08-25T05:30:15;30.27;;;11.23;;
54502;SDS011;40411;50.090;21.954;2022-08-25T05:32:41;27.13;;;11.98;;
54502;SDS011;40411;50.090;21.954;2022-08-25T05:35:07;37.05;;;12.07;;
54502;SDS011;40411;50.090;21.954;2022-08-25T05:37:33;20.90;;;12.00;;
54502;SDS011;40411;50.090;21.954;2022-08-25T05:39:59;20.92;;;12.68;;
54502;SDS011;40411;50.090;21.954;2022-08-25T05:42:30;76.13;;;13.95;;
54502;SDS011;40411;50.090;21.954;2022-08-25T05:44:56;34.55;;;12.60;;
54502;SDS011;40411;50.090;21.954;2022-08-25T05:47:22;25.88;;;12.00;;
54502;SDS011;40411;50.090;21.954;2022-08-25T05:49:54;19.83;;;11.88;;
54502;SDS011;40411;50.090;21.954;2022-08-25T05:52:20;27.88;;;13.05;;
54502;SDS011;40411;50.090;21.954;2022-08-25T05:54:46;23.92;;;12.32;;
54502;SDS011;40411;50.090;21.954;2022-08-25T05:57:15;34.20;;;12.50;;
54502;SDS011;40411;50.090;21.954;2022-08-25T05:59:44;28.42;;;13.75;;
54502;SDS011;40411;50.090;21.954;2022-08-25T06:02:10;22.60;;;11.70;;
54502;SDS011;40411;50.090;21.954;2022-08-25T06:04:54;21.92;;;12.48;;
54502;SDS011;40411;50.090;21.954;2022-08-25T06:07:21;23.20;;;14.07;;
54502;SDS011;40411;50.090;21.954;2022-08-25T06:09:47;30.17;;;14.40;;
54502;SDS011;40411;50.090;21.954;2022-08-25T06:12:16;42.25;;;14.20;;
54502;SDS011;40411;50.090;21.954;2022-08-25T06:14:42;21.60;;;13.20;;
54502;SDS011;40411;50.090;21.954;2022-08-25T06:17:08;25.73;;;13.27;;
54502;SDS011;40411;50.090;21.954;2022-08-25T06:19:35;31.75;;;13.40;;
54502;SDS011;40411;50.090;21.954;2022-08-25T06:22:01;26.33;;;13.30;;
54502;SDS011;40411;50.090;21.954;2022-08-25T06:24:27;22.45;;;12.93;;
54502;SDS011;40411;50.090;21.954;2022-08-25T06:26:54;26.08;;;13.43;;
54502;SDS011;40411;50.090;21.954;2022-08-25T06:29:20;23.55;;;13.45;;
54502;SDS011;40411;50.090;21.954;2022-08-25T06:31:46;26.13;;;12.88;;
54502;SDS011;40411;50.090;21.954;2022-08-25T06:34:14;31.10;;;13.27;;
54502;SDS011;40411;50.090;21.954;2022-08-25T06:36:41;25.90;;;13.07;;
54502;SDS011;40411;50.090;21.954;2022-08-25T06:39:07;19.17;;;13.05;;
54502;SDS011;40411;50.090;21.954;2022-08-25T06:41:33;23.05;;;13.18;;
54502;SDS011;40411;50.090;21.954;2022-08-25T06:44:01;24.02;;;13.77;;
54502;SDS011;40411;50.090;21.954;2022-08-25T06:46:27;26.83;;;13.45;;
54502;SDS011;40411;50.090;21.954;2022-08-25T06:48:54;22.08;;;12.70;;
54502;SDS011;40411;50.090;21.954;2022-08-25T06:51:22;23.83;;;13.15;;
54502;SDS011;40411;50.090;21.954;2022-08-25T06:53:50;26.35;;;13.10;;
54502;SDS011;40411;50.090;21.954;2022-08-25T06:56:17;26.60;;;12.80;;
54502;SDS011;40411;50.090;21.954;2022-08-25T06:58:45;20.95;;;12.70;;
54502;SDS011;40411;50.090;21.954;2022-08-25T07:01:14;22.45;;;12.77;;
54502;SDS011;40411;50.090;21.954;2022-08-25T07:03:41;31.77;;;13.90;;
54502;SDS011;40411;50.090;21.954;2022-08-25T07:06:08;23.30;;;13.52;;
54502;SDS011;40411;50.090;21.954;2022-08-25T07:08:34;30.38;;;13.70;;
54502;SDS011;40411;50.090;21.954;2022-08-25T07:11:05;23.63;;;13.80;;
54502;SDS011;40411;50.090;21.954;2022-08-25T07:13:32;31.33;;;13.38;;
54502;SDS011;40411;50.090;21.954;2022-08-25T07:15:58;21.58;;;13.57;;
54502;SDS011;40411;50.090;21.954;2022-08-25T07:18:24;25.30;;;13.15;;
54502;SDS011;40411;50.090;21.954;2022-08-25T07:20:51;27.75;;;13.45;;
54502;SDS011;40411;50.090;21.954;2022-08-25T07:23:18;26.50;;;14.05;;
54502;SDS011;40411;50.090;21.954;2022-08-25T07:25:45;30.67;;;13.20;;
54502;SDS011;40411;50.090;21.954;2022-08-25T07:28:12;34.13;;;15.63;;
54502;SDS011;40411;50.090;21.954;2022-08-25T07:30:39;26.40;;;14.02;;
54502;SDS011;40411;50.090;21.954;2022-08-25T07:33:06;39.15;;;14.95;;
54502;SDS011;40411;50.090;21.954;2022-08-25T07:35:32;25.27;;;14.48;;
54502;SDS011;40411;50.090;21.954;2022-08-25T07:37:58;21.27;;;13.52;;
54502;SDS011;40411;50.090;21.954;2022-08-25T07:40:25;28.90;;;14.40;;
54502;SDS011;40411;50.090;21.954;2022-08-25T07:42:54;29.25;;;14.27;;
54502;SDS011;40411;50.090;21.954;2022-08-25T07:45:23;29.50;;;13.55;;
54502;SDS011;40411;50.090;21.954;2022-08-25T07:48:05;29.27;;;15.10;;
54502;SDS011;40411;50.090;21.954;2022-08-25T07:50:33;31.20;;;15.95;;
54502;SDS011;40411;50.090;21.954;2022-08-25T07:53:00;29.17;;;16.10;;
54502;SDS011;40411;50.090;21.954;2022-08-25T07:55:26;34.30;;;18.40;;
54502;SDS011;40411;50.090;21.954;2022-08-25T07:57:55;30.38;;;16.77;;
54502;SDS011;40411;50.090;21.954;2022-08-25T08:00:21;32.00;;;17.98;;
54502;SDS011;40411;50.090;21.954;2022-08-25T08:02:47;35.22;;;18.20;;
54502;SDS011;40411;50.090;21.954;2022-08-25T08:05:13;29.45;;;15.80;;
54502;SDS011;40411;50.090;21.954;2022-08-25T08:07:40;31.17;;;16.35;;
54502;SDS011;40411;50.090;21.954;2022-08-25T08:10:06;30.45;;;16.50;;
54502;SDS011;40411;50.090;21.954;2022-08-25T08:12:34;39.22;;;14.93;;
54502;SDS011;40411;50.090;21.954;2022-08-25T08:15:00;34.55;;;15.35;;
54502;SDS011;40411;50.090;21.954;2022-08-25T08:17:27;40.78;;;16.83;;
54502;SDS011;40411;50.090;21.954;2022-08-25T08:19:52;33.60;;;14.63;;
54502;SDS011;40411;50.090;21.954;2022-08-25T08:22:18;31.13;;;13.98;;
54502;SDS011;40411;50.090;21.954;2022-08-25T08:24:44;31.10;;;13.85;;
54502;SDS011;40411;50.090;21.954;2022-08-25T08:27:11;22.05;;;11.60;;
54502;SDS011;40411;50.090;21.954;2022-08-25T08:29:39;25.08;;;11.25;;
54502;SDS011;40411;50.090;21.954;2022-08-25T08:32:07;30.98;;;10.93;;
54502;SDS011;40411;50.090;21.954;2022-08-25T08:34:36;30.48;;;12.02;;
54502;SDS011;40411;50.090;21.954;2022-08-25T08:37:02;25.58;;;10.02;;
54502;SDS011;40411;50.090;21.954;2022-08-25T08:39:29;28.58;;;12.00;;
54502;SDS011;40411;50.090;21.954;2022-08-25T08:42:16;29.10;;;11.50;;
54502;SDS011;40411;50.090;21.954;2022-08-25T08:53:07;28.35;;;9.20;;
54502;SDS011;40411;50.090;21.954;2022-08-25T08:55:37;25.42;;;8.10;;
54502;SDS011;40411;50.090;21.954;2022-08-25T08:58:14;20.50;;;8.85;;
54502;SDS011;40411;50.090;21.954;2022-08-25T09:00:48;26.67;;;8.43;;
54502;SDS011;40411;50.090;21.954;2022-08-25T09:03:36;22.52;;;8.73;;
54502;SDS011;40411;50.090;21.954;2022-08-25T09:08:46;38.37;;;8.47;;
54502;SDS011;40411;50.090;21.954;2022-08-25T09:11:17;21.85;;;7.63;;
54502;SDS011;40411;50.090;21.954;2022-08-25T09:16:54;28.52;;;8.40;;
54502;SDS011;40411;50.090;21.954;2022-08-25T09:28:03;28.15;;;7.30;;
54502;SDS011;40411;50.090;21.954;2022-08-25T09:30:36;26.02;;;7.47;;
54502;SDS011;40411;50.090;21.954;2022-08-25T09:33:14;17.45;;;6.85;;
54502;SDS011;40411;50.090;21.954;2022-08-25T09:35:44;26.05;;;6.75;;
54502;SDS011;40411;50.090;21.954;2022-08-25T09:38:11;19.85;;;6.75;;
54502;SDS011;40411;50.090;21.954;2022-08-25T09:40:39;17.50;;;7.10;;
54502;SDS011;40411;50.090;21.954;2022-08-25T09:45:49;21.67;;;6.32;;
54502;SDS011;40411;50.090;21.954;2022-08-25T09:48:30;28.83;;;7.47;;
54502;SDS011;40411;50.090;21.954;2022-08-25T09:56:22;27.80;;;6.88;;
54502;SDS011;40411;50.090;21.954;2022-08-25T09:58:50;20.83;;;7.78;;
54502;SDS011;40411;50.090;21.954;2022-08-25T10:01:18;25.15;;;7.50;;
54502;SDS011;40411;50.090;21.954;2022-08-25T10:03:53;25.20;;;5.85;;
54502;SDS011;40411;50.090;21.954;2022-08-25T10:06:19;19.77;;;6.60;;
54502;SDS011;40411;50.090;21.954;2022-08-25T10:11:13;13.52;;;4.97;;
54502;SDS011;40411;50.090;21.954;2022-08-25T10:14:03;15.65;;;5.45;;
54502;SDS011;40411;50.090;21.954;2022-08-25T10:16:49;19.02;;;5.38;;
54502;SDS011;40411;50.090;21.954;2022-08-25T10:22:06;22.67;;;4.70;;
54502;SDS011;40411;50.090;21.954;2022-08-25T10:24:35;22.85;;;4.45;;
54502;SDS011;40411;50.090;21.954;2022-08-25T10:30:07;23.58;;;4.70;;
54502;SDS011;40411;50.090;21.954;2022-08-25T10:35:26;29.30;;;5.63;;
54502;SDS011;40411;50.090;21.954;2022-08-25T10:43:23;20.73;;;5.07;;
54502;SDS011;40411;50.090;21.954;2022-08-25T10:46:07;16.73;;;4.43;;
54502;SDS011;40411;50.090;21.954;2022-08-25T10:48:50;15.38;;;4.20;;
54502;SDS011;40411;50.090;21.954;2022-08-25T11:05:19;25.30;;;4.78;;
54502;SDS011;40411;50.090;21.954;2022-08-25T11:07:53;19.48;;;4.53;;
54502;SDS011;40411;50.090;21.954;2022-08-25T11:10:43;26.90;;;4.95;;
54502;SDS011;40411;50.090;21.954;2022-08-25T11:15:57;18.10;;;4.15;;
54502;SDS011;40411;50.090;21.954;2022-08-25T11:18:27;12.90;;;3.58;;
54502;SDS011;40411;50.090;21.954;2022-08-25T11:21:06;18.67;;;4.10;;
54502;SDS011;40411;50.090;21.954;2022-08-25T11:23:44;16.80;;;3.85;;
54502;SDS011;40411;50.090;21.954;2022-08-25T11:26:19;18.63;;;3.92;;
54502;SDS011;40411;50.090;21.954;2022-08-25T11:28:59;21.10;;;4.55;;
54502;SDS011;40411;50.090;21.954;2022-08-25T11:31:25;21.90;;;3.85;;
54502;SDS011;40411;50.090;21.954;2022-08-25T11:33:52;18.67;;;3.95;;
54502;SDS011;40411;50.090;21.954;2022-08-25T11:36:29;13.65;;;3.80;;
54502;SDS011;40411;50.090;21.954;2022-08-25T11:41:40;20.63;;;4.18;;
54502;SDS011;40411;50.090;21.954;2022-08-25T11:49:35;13.27;;;3.28;;
54502;SDS011;40411;50.090;21.954;2022-08-25T11:52:07;10.23;;;3.58;;
54502;SDS011;40411;50.090;21.954;2022-08-25T11:57:38;12.27;;;3.40;;
54502;SDS011;40411;50.090;21.954;2022-08-25T12:00:40;12.02;;;3.13;;
54502;SDS011;40411;50.090;21.954;2022-08-25T12:21:54;15.90;;;3.03;;
54502;SDS011;40411;50.090;21.954;2022-08-25T12:27:48;10.15;;;3.10;;
54502;SDS011;40411;50.090;21.954;2022-08-25T12:30:49;13.40;;;3.08;;
54502;SDS011;40411;50.090;21.954;2022-08-25T12:36:24;17.85;;;4.18;;
54502;SDS011;40411;50.090;21.954;2022-08-25T12:38:53;13.13;;;3.15;;
54502;SDS011;40411;50.090;21.954;2022-08-25T12:41:23;16.52;;;3.17;;
54502;SDS011;40411;50.090;21.954;2022-08-25T12:43:52;13.18;;;3.28;;
54502;SDS011;40411;50.090;21.954;2022-08-25T12:46:36;12.00;;;2.88;;
54502;SDS011;40411;50.090;21.954;2022-08-25T12:52:15;11.30;;;2.92;;
54502;SDS011;40411;50.090;21.954;2022-08-25T12:54:54;10.43;;;2.47;;
54502;SDS011;40411;50.090;21.954;2022-08-25T12:57:30;16.20;;;2.70;;
54502;SDS011;40411;50.090;21.954;2022-08-25T12:59:59;18.77;;;2.83;;
54502;SDS011;40411;50.090;21.954;2022-08-25T13:10:57;10.57;;;2.92;;
54502;SDS011;40411;50.090;21.954;2022-08-25T13:14:00;8.35;;;2.88;;
54502;SDS011;40411;50.090;21.954;2022-08-25T13:16:32;18.23;;;3.25;;
54502;SDS011;40411;50.090;21.954;2022-08-25T13:19:01;10.23;;;2.67;;
54502;SDS011;40411;50.090;21.954;2022-08-25T13:24:06;14.13;;;3.33;;
54502;SDS011;40411;50.090;21.954;2022-08-25T13:26:40;7.55;;;3.08;;
54502;SDS011;40411;50.090;21.954;2022-08-25T13:31:35;12.95;;;2.78;;
54502;SDS011;40411;50.090;21.954;2022-08-25T13:34:05;18.95;;;3.00;;
54502;SDS011;40411;50.090;21.954;2022-08-25T13:36:34;11.82;;;2.85;;
54502;SDS011;40411;50.090;21.954;2022-08-25T13:39:31;11.68;;;2.97;;
54502;SDS011;40411;50.090;21.954;2022-08-25T13:41:58;10.85;;;2.55;;
54502;SDS011;40411;50.090;21.954;2022-08-25T13:44:27;10.20;;;2.75;;
54502;SDS011;40411;50.090;21.954;2022-08-25T13:47:05;11.23;;;2.67;;
54502;SDS011;40411;50.090;21.954;2022-08-25T13:49:36;12.10;;;3.30;;
54502;SDS011;40411;50.090;21.954;2022-08-25T13:52:04;15.70;;;2.88;;
54502;SDS011;40411;50.090;21.954;2022-08-25T13:54:36;9.43;;;2.55;;
54502;SDS011;40411;50.090;21.954;2022-08-25T13:57:20;13.75;;;4.13;;
54502;SDS011;40411;50.090;21.954;2022-08-25T13:59:53;11.52;;;4.13;;
54502;SDS011;40411;50.090;21.954;2022-08-25T14:05:05;15.27;;;2.80;;
54502;SDS011;40411;50.090;21.954;2022-08-25T14:07:31;13.40;;;2.45;;
54502;SDS011;40411;50.090;21.954;2022-08-25T14:09:58;16.42;;;2.75;;
54502;SDS011;40411;50.090;21.954;2022-08-25T14:12:28;15.30;;;2.60;;
54502;SDS011;40411;50.090;21.954;2022-08-25T14:15:02;8.35;;;3.00;;
54502;SDS011;40411;50.090;21.954;2022-08-25T14:17:31;11.48;;;2.80;;
54502;SDS011;40411;50.090;21.954;2022-08-25T14:19:58;8.35;;;2.40;;
54502;SDS011;40411;50.090;21.954;2022-08-25T14:22:24;8.20;;;2.05;;
54502;SDS011;40411;50.090;21.954;2022-08-25T14:24:50;8.10;;;2.47;;
54502;SDS011;40411;50.090;21.954;2022-08-25T14:27:18;7.05;;;2.40;;
54502;SDS011;40411;50.090;21.954;2022-08-25T14:29:44;9.68;;;2.90;;
54502;SDS011;40411;50.090;21.954;2022-08-25T14:32:10;9.60;;;3.00;;
54502;SDS011;40411;50.090;21.954;2022-08-25T14:34:39;9.48;;;3.20;;
54502;SDS011;40411;50.090;21.954;2022-08-25T14:37:10;11.80;;;2.83;;
54502;SDS011;40411;50.090;21.954;2022-08-25T14:39:39;8.02;;;2.40;;
54502;SDS011;40411;50.090;21.954;2022-08-25T14:42:05;12.13;;;2.90;;
54502;SDS011;40411;50.090;21.954;2022-08-25T14:44:32;10.40;;;2.85;;
54502;SDS011;40411;50.090;21.954;2022-08-25T14:46:58;19.25;;;2.88;;
54502;SDS011;40411;50.090;21.954;2022-08-25T14:49:30;17.67;;;3.25;;
54502;SDS011;40411;50.090;21.954;2022-08-25T14:52:00;14.13;;;2.80;;
54502;SDS011;40411;50.090;21.954;2022-08-25T14:54:48;9.93;;;2.70;;
54502;SDS011;40411;50.090;21.954;2022-08-25T14:57:15;17.35;;;2.70;;
54502;SDS011;40411;50.090;21.954;2022-08-25T14:59:41;9.20;;;2.60;;
54502;SDS011;40411;50.090;21.954;2022-08-25T15:02:06;11.77;;;3.03;;
54502;SDS011;40411;50.090;21.954;2022-08-25T15:04:34;8.52;;;2.55;;
54502;SDS011;40411;50.090;21.954;2022-08-25T15:07:01;16.83;;;3.08;;
54502;SDS011;40411;50.090;21.954;2022-08-25T15:09:47;21.80;;;3.47;;
54502;SDS011;40411;50.090;21.954;2022-08-25T15:12:13;14.77;;;3.00;;
54502;SDS011;40411;50.090;21.954;2022-08-25T15:14:39;9.35;;;2.53;;
54502;SDS011;40411;50.090;21.954;2022-08-25T15:17:05;13.40;;;3.17;;
54502;SDS011;40411;50.090;21.954;2022-08-25T15:19:32;12.80;;;3.05;;
54502;SDS011;40411;50.090;21.954;2022-08-25T15:21:58;21.70;;;3.40;;
54502;SDS011;40411;50.090;21.954;2022-08-25T15:24:25;12.95;;;2.63;;
54502;SDS011;40411;50.090;21.954;2022-08-25T15:26:59;16.55;;;2.88;;
54502;SDS011;40411;50.090;21.954;2022-08-25T15:29:29;13.50;;;2.83;;
54502;SDS011;40411;50.090;21.954;2022-08-25T15:31:57;14.40;;;3.00;;
54502;SDS011;40411;50.090;21.954;2022-08-25T15:34:28;11.87;;;3.10;;
54502;SDS011;40411;50.090;21.954;2022-08-25T15:36:55;13.65;;;2.88;;
54502;SDS011;40411;50.090;21.954;2022-08-25T15:39:22;16.10;;;3.03;;
54502;SDS011;40411;50.090;21.954;2022-08-25T15:41:48;13.15;;;3.53;;
54502;SDS011;40411;50.090;21.954;2022-08-25T15:44:17;8.45;;;3.00;;
54502;SDS011;40411;50.090;21.954;2022-08-25T15:46:43;7.22;;;2.70;;
54502;SDS011;40411;50.090;21.954;2022-08-25T15:49:10;16.10;;;2.70;;
54502;SDS011;40411;50.090;21.954;2022-08-25T15:51:36;11.13;;;3.05;;
54502;SDS011;40411;50.090;21.954;2022-08-25T15:54:02;16.77;;;3.17;;
54502;SDS011;40411;50.090;21.954;2022-08-25T15:56:28;10.02;;;2.88;;
54502;SDS011;40411;50.090;21.954;2022-08-25T15:58:55;11.55;;;2.60;;
54502;SDS011;40411;50.090;21.954;2022-08-25T16:01:23;9.98;;;2.90;;
54502;SDS011;40411;50.090;21.954;2022-08-25T16:03:50;17.52;;;2.88;;
54502;SDS011;40411;50.090;21.954;2022-08-25T16:06:16;11.05;;;2.80;;
54502;SDS011;40411;50.090;21.954;2022-08-25T16:08:42;9.52;;;2.78;;
54502;SDS011;40411;50.090;21.954;2022-08-25T16:11:29;8.52;;;2.83;;
54502;SDS011;40411;50.090;21.954;2022-08-25T16:13:56;8.32;;;2.72;;
54502;SDS011;40411;50.090;21.954;2022-08-25T16:16:23;11.55;;;2.30;;
54502;SDS011;40411;50.090;21.954;2022-08-25T16:18:51;10.32;;;3.08;;
54502;SDS011;40411;50.090;21.954;2022-08-25T16:21:19;12.65;;;3.10;;
54502;SDS011;40411;50.090;21.954;2022-08-25T16:23:48;13.07;;;3.22;;
54502;SDS011;40411;50.090;21.954;2022-08-25T16:26:17;12.48;;;3.15;;
54502;SDS011;40411;50.090;21.954;2022-08-25T16:28:43;8.73;;;2.78;;
54502;SDS011;40411;50.090;21.954;2022-08-25T16:31:10;12.55;;;2.67;;